Strona główna
METAR-TAF:

METAR-TAF

Lotnisko :

Port lotniczy Bristol

Bristol, Anglia

Szerokość geograficzna: 51-23N, Długość geograficzna: 002-43W, wysokość: 189 m

Aktualna obserwacja pogody

Raport powstał 26 minut temu, godzina 18:20 UTC
Wiatr 6 kt od zachód
Temperatura 16°C
Wilgotność 82%
Ciśnienie 1025 hPa
Widzialność 10 km lub więcej
Mało chmury na wysokości 2600 ft

METAR: EGGD 211820Z AUTO 26006KT 9999 FEW026 16/13 Q1025

czas: 19:46 (18:46 UTC)

Prognoza

Raport powstał 1 godzina i 45 minut temu, godzina 17:01 UTC
Prognoza ważna od 21 godzina 18 UTC do 22 godzina 18 UTC
Wiatr 8 kt od południowo-południowy zachód
Widzialność 10 km lub więcej
Mało chmury na wysokości 2500 ft
Prawdopodobieństwo 30%
od 21 godzina 18 UTC do 21 godzina 19 UTC
Wiatr 10 kt od zachód
Prawdopodobieństwo 40% :
Przejściowo
od 22 godzina 04 UTC do 22 godzina 08 UTC
Przerywane chmury na wysokości 800 ft

TAF: EGGD 211701Z 2118/2218 21008KT 9999 FEW025 PROB30 2118/2119 27010KT PROB40 TEMPO 2204/2208 BKN008

Obserwacja i prognoza pogody dla ponad 4000 lotnisk (raport METAR i TAF).

Dostępne stacje oznaczono żółtymi i czerwonymi punktami na mapie.

Najedź kursorem aby zobaczyć nazwę stacji.

Kliknij aby zobaczyć obserwacje i prognozy pogody.

Aby zmienić mapę: kliknij na zielony przycisk z czarnym krzyżykiem, aby powiększyć; na zielony przycisk z myślnikiem, aby pomniejszyć; na zielone strzałki, aby przejść do map sąsiednich.


METAR-TAF: